sensor_id;sensor_type;location;lat;lon;timestamp;P1;durP1;ratioP1;P2;durP2;ratioP2
49556;SDS011;35462;45.048;7.666;2023-04-24T00:01:15;7.13;;;5.57;;
49556;SDS011;35462;45.048;7.666;2023-04-24T00:16:20;7.97;;;5.18;;
49556;SDS011;35462;45.048;7.666;2023-04-24T00:31:24;6.97;;;5.35;;
49556;SDS011;35462;45.048;7.666;2023-04-24T00:46:28;6.93;;;5.00;;
49556;SDS011;35462;45.048;7.666;2023-04-24T01:01:32;10.73;;;6.03;;
49556;SDS011;35462;45.048;7.666;2023-04-24T01:16:36;8.07;;;5.63;;
49556;SDS011;35462;45.048;7.666;2023-04-24T01:31:41;6.45;;;4.72;;
49556;SDS011;35462;45.048;7.666;2023-04-24T01:46:46;5.47;;;4.97;;
49556;SDS011;35462;45.048;7.666;2023-04-24T02:01:50;9.30;;;7.20;;
49556;SDS011;35462;45.048;7.666;2023-04-24T02:16:56;8.57;;;7.55;;
49556;SDS011;35462;45.048;7.666;2023-04-24T02:32:00;7.25;;;6.05;;
49556;SDS011;35462;45.048;7.666;2023-04-24T02:47:03;5.57;;;5.07;;
49556;SDS011;35462;45.048;7.666;2023-04-24T03:02:07;9.80;;;6.93;;
49556;SDS011;35462;45.048;7.666;2023-04-24T03:17:11;8.68;;;6.72;;
49556;SDS011;35462;45.048;7.666;2023-04-24T03:32:15;13.35;;;6.32;;
49556;SDS011;35462;45.048;7.666;2023-04-24T03:47:20;9.32;;;6.93;;
49556;SDS011;35462;45.048;7.666;2023-04-24T04:02:25;10.32;;;7.10;;
49556;SDS011;35462;45.048;7.666;2023-04-24T04:17:29;15.93;;;8.57;;
49556;SDS011;35462;45.048;7.666;2023-04-24T04:32:34;11.18;;;9.60;;
49556;SDS011;35462;45.048;7.666;2023-04-24T04:47:40;10.95;;;9.45;;
49556;SDS011;35462;45.048;7.666;2023-04-24T05:02:46;11.85;;;9.75;;
49556;SDS011;35462;45.048;7.666;2023-04-24T05:17:50;15.25;;;8.85;;
49556;SDS011;35462;45.048;7.666;2023-04-24T05:32:54;12.43;;;8.30;;
49556;SDS011;35462;45.048;7.666;2023-04-24T05:47:58;11.05;;;8.30;;
49556;SDS011;35462;45.048;7.666;2023-04-24T06:03:02;10.73;;;8.27;;
49556;SDS011;35462;45.048;7.666;2023-04-24T06:18:07;11.68;;;8.63;;
49556;SDS011;35462;45.048;7.666;2023-04-24T06:33:14;8.45;;;7.07;;
49556;SDS011;35462;45.048;7.666;2023-04-24T06:48:19;9.43;;;7.22;;
49556;SDS011;35462;45.048;7.666;2023-04-24T07:03:23;6.88;;;5.45;;
49556;SDS011;35462;45.048;7.666;2023-04-24T07:18:27;5.68;;;5.07;;
49556;SDS011;35462;45.048;7.666;2023-04-24T07:33:31;5.65;;;4.05;;
49556;SDS011;35462;45.048;7.666;2023-04-24T07:48:35;6.10;;;4.93;;
49556;SDS011;35462;45.048;7.666;2023-04-24T08:03:39;6.07;;;4.65;;
49556;SDS011;35462;45.048;7.666;2023-04-24T08:18:43;9.45;;;6.38;;
49556;SDS011;35462;45.048;7.666;2023-04-24T08:33:47;6.80;;;4.45;;
49556;SDS011;35462;45.048;7.666;2023-04-24T08:48:52;6.47;;;4.32;;
49556;SDS011;35462;45.048;7.666;2023-04-24T09:03:56;7.65;;;5.28;;
49556;SDS011;35462;45.048;7.666;2023-04-24T09:19:01;7.28;;;5.00;;
49556;SDS011;35462;45.048;7.666;2023-04-24T09:34:06;4.78;;;3.65;;
49556;SDS011;35462;45.048;7.666;2023-04-24T09:49:11;4.05;;;3.22;;
49556;SDS011;35462;45.048;7.666;2023-04-24T10:04:19;5.43;;;3.75;;
49556;SDS011;35462;45.048;7.666;2023-04-24T10:19:25;6.70;;;5.00;;
49556;SDS011;35462;45.048;7.666;2023-04-24T10:34:29;5.10;;;4.32;;
49556;SDS011;35462;45.048;7.666;2023-04-24T10:49:33;4.93;;;3.92;;
49556;SDS011;35462;45.048;7.666;2023-04-24T11:04:37;4.30;;;3.85;;
49556;SDS011;35462;45.048;7.666;2023-04-24T11:19:41;4.50;;;3.05;;
49556;SDS011;35462;45.048;7.666;2023-04-24T11:34:46;2.88;;;1.67;;
49556;SDS011;35462;45.048;7.666;2023-04-24T11:49:51;2.28;;;1.30;;
49556;SDS011;35462;45.048;7.666;2023-04-24T12:04:55;0.77;;;0.60;;
49556;SDS011;35462;45.048;7.666;2023-04-24T12:20:02;2.10;;;1.00;;
49556;SDS011;35462;45.048;7.666;2023-04-24T12:51:09;2.75;;;0.52;;
49556;SDS011;35462;45.048;7.666;2023-04-24T13:06:13;0.63;;;0.30;;
49556;SDS011;35462;45.048;7.666;2023-04-24T13:21:16;1.48;;;0.30;;
49556;SDS011;35462;45.048;7.666;2023-04-24T13:36:20;5.35;;;0.50;;
49556;SDS011;35462;45.048;7.666;2023-04-24T13:51:25;0.93;;;0.22;;
49556;SDS011;35462;45.048;7.666;2023-04-24T14:06:30;0.77;;;0.17;;
49556;SDS011;35462;45.048;7.666;2023-04-24T14:21:34;9.73;;;0.50;;
49556;SDS011;35462;45.048;7.666;2023-04-24T14:36:38;2.75;;;0.47;;
49556;SDS011;35462;45.048;7.666;2023-04-24T14:51:42;2.58;;;0.30;;
49556;SDS011;35462;45.048;7.666;2023-04-24T15:06:46;2.40;;;0.20;;
49556;SDS011;35462;45.048;7.666;2023-04-24T15:21:50;3.58;;;0.22;;
49556;SDS011;35462;45.048;7.666;2023-04-24T15:36:54;3.17;;;0.22;;
49556;SDS011;35462;45.048;7.666;2023-04-24T15:51:58;1.42;;;0.30;;
49556;SDS011;35462;45.048;7.666;2023-04-24T16:07:02;1.98;;;0.28;;
49556;SDS011;35462;45.048;7.666;2023-04-24T16:22:05;1.85;;;0.85;;
49556;SDS011;35462;45.048;7.666;2023-04-24T16:37:09;2.72;;;0.17;;
49556;SDS011;35462;45.048;7.666;2023-04-24T16:52:14;0.50;;;0.15;;
49556;SDS011;35462;45.048;7.666;2023-04-24T17:07:18;2.17;;;0.45;;
49556;SDS011;35462;45.048;7.666;2023-04-24T17:22:23;2.05;;;0.30;;
49556;SDS011;35462;45.048;7.666;2023-04-24T17:37:27;1.40;;;0.40;;
49556;SDS011;35462;45.048;7.666;2023-04-24T17:52:30;3.47;;;0.35;;
49556;SDS011;35462;45.048;7.666;2023-04-24T18:07:34;1.17;;;0.20;;
49556;SDS011;35462;45.048;7.666;2023-04-24T18:22:38;1.25;;;0.25;;
49556;SDS011;35462;45.048;7.666;2023-04-24T18:37:43;0.50;;;0.22;;
49556;SDS011;35462;45.048;7.666;2023-04-24T18:52:48;1.92;;;0.30;;
49556;SDS011;35462;45.048;7.666;2023-04-24T19:07:51;1.27;;;0.40;;
49556;SDS011;35462;45.048;7.666;2023-04-24T19:22:55;1.23;;;0.65;;
49556;SDS011;35462;45.048;7.666;2023-04-24T19:37:59;2.30;;;0.60;;
49556;SDS011;35462;45.048;7.666;2023-04-24T19:53:04;1.83;;;0.30;;
49556;SDS011;35462;45.048;7.666;2023-04-24T20:08:09;0.85;;;0.60;;
49556;SDS011;35462;45.048;7.666;2023-04-24T20:23:13;1.85;;;1.13;;
49556;SDS011;35462;45.048;7.666;2023-04-24T20:38:17;1.25;;;0.30;;
49556;SDS011;35462;45.048;7.666;2023-04-24T20:53:21;1.27;;;0.40;;
49556;SDS011;35462;45.048;7.666;2023-04-24T21:08:25;2.05;;;0.55;;
49556;SDS011;35462;45.048;7.666;2023-04-24T21:23:29;1.10;;;0.45;;
49556;SDS011;35462;45.048;7.666;2023-04-24T21:38:33;1.20;;;0.30;;
49556;SDS011;35462;45.048;7.666;2023-04-24T21:53:37;2.20;;;0.75;;
49556;SDS011;35462;45.048;7.666;2023-04-24T22:08:40;2.47;;;0.60;;
49556;SDS011;35462;45.048;7.666;2023-04-24T22:23:46;6.88;;;3.00;;
49556;SDS011;35462;45.048;7.666;2023-04-24T22:38:49;24.42;;;12.52;;
49556;SDS011;35462;45.048;7.666;2023-04-24T22:53:54;6.60;;;3.45;;
49556;SDS011;35462;45.048;7.666;2023-04-24T23:08:58;2.33;;;0.90;;
49556;SDS011;35462;45.048;7.666;2023-04-24T23:24:02;3.25;;;0.65;;
49556;SDS011;35462;45.048;7.666;2023-04-24T23:39:06;0.73;;;0.52;;
49556;SDS011;35462;45.048;7.666;2023-04-24T23:54:10;1.98;;;0.65;;
